Terminal Aerodrome Forecast
Issued by NWS

Home | Current Version | Previous Version | Text Only | Print | Product List | Glossary On
Versions: 1 2 3 4 5 6 7 8 9 10 11 12 13 14 15 16 17
000
FTUS46 KSTO 192300
TAFSMF
TAF
KSMF 192324Z 2000/2024 15010KT 4SM -SHRA BR FEW015 OVC025
      TEMPO 2000/2004 2SM -SHRA BR BKN015
     FM201200 16005KT 5SM BR VCSH OVC015=

USA.gov is the U.S. government's official web portal to all federal, state and local government web resources and services.